createdAt,value
2017-12-19T07:03:54.106Z,6.15
2017-12-19T07:05:02.637Z,6.13
2017-12-19T07:06:11.718Z,6.1
2017-12-19T07:07:20.529Z,6.21
2017-12-19T07:08:29.111Z,6.21
2017-12-19T07:09:37.909Z,6.17
2017-12-19T07:10:46.442Z,6.15
2017-12-19T07:11:55.512Z,6.15
2017-12-19T07:13:04.311Z,6.24
2017-12-19T07:14:13.108Z,6.17
2017-12-19T07:15:21.643Z,6.25
2017-12-19T07:16:30.444Z,6.14
2017-12-19T07:17:39.514Z,6.24
2017-12-19T07:18:48.588Z,6.25
2017-12-19T07:19:57.715Z,6.25
2017-12-19T07:21:06.581Z,6.26
2017-12-19T07:22:15.119Z,6.29
2017-12-19T07:23:23.923Z,6.28
2017-12-19T07:24:32.991Z,6.18
2017-12-19T07:25:41.575Z,6.25
2017-12-19T07:26:50.373Z,6.28
2017-12-19T07:27:59.173Z,6.25
2017-12-19T07:29:07.706Z,6.25
2017-12-19T07:30:16.505Z,6.29
2017-12-19T07:31:25.627Z,6.34
2017-12-19T07:32:34.427Z,6.34
2017-12-19T07:33:43.833Z,6.36
2017-12-19T07:34:52.366Z,6.4
2017-12-19T07:36:01.437Z,6.36
2017-12-19T07:37:10.569Z,6.39
2017-12-19T07:38:19.370Z,6.43
2017-12-19T07:39:28.435Z,6.43
2017-12-19T07:40:37.256Z,6.43
2017-12-19T07:41:46.218Z,6.37
2017-12-19T07:42:55.377Z,6.51
2017-12-19T07:44:04.442Z,6.4
2017-12-19T07:45:12.990Z,6.49
2017-12-19T07:46:21.766Z,6.51
2017-12-19T07:47:30.459Z,6.49
2017-12-19T07:48:40.238Z,6.54
2017-12-19T07:49:49.317Z,6.55
2017-12-19T07:50:58.436Z,6.52
2017-12-19T07:52:07.780Z,6.57
2017-12-19T07:53:16.580Z,6.57
2017-12-19T07:54:25.168Z,6.58
2017-12-19T07:55:33.999Z,6.58
2017-12-19T07:56:42.811Z,6.62
2017-12-19T07:57:51.343Z,6.52
2017-12-19T07:59:00.419Z,6.64
2017-12-19T08:00:09.221Z,6.6
2017-12-19T08:01:18.027Z,6.54
2017-12-19T08:02:26.835Z,6.6
2017-12-19T08:03:35.368Z,6.64
2017-12-19T08:04:44.171Z,6.6
2017-12-19T08:05:53.021Z,6.57
2017-12-19T08:07:01.824Z,6.57
2017-12-19T08:08:10.359Z,6.62
2017-12-19T08:09:19.163Z,6.61
2017-12-19T08:10:27.705Z,6.64
2017-12-19T08:11:36.590Z,6.62
2017-12-19T08:12:45.129Z,6.62
2017-12-19T08:13:53.667Z,6.67
2017-12-19T08:15:02.260Z,6.68
2017-12-19T08:16:10.924Z,6.76
2017-12-19T08:17:19.823Z,6.78
2017-12-19T08:18:29.225Z,6.72
2017-12-19T08:19:38.026Z,6.75
2017-12-19T08:20:46.933Z,6.68
2017-12-19T08:21:55.771Z,6.78
2017-12-19T08:23:04.682Z,6.83
2017-12-19T08:24:13.770Z,6.73
2017-12-19T08:25:22.338Z,6.79
2017-12-19T08:26:31.308Z,6.73
2017-12-19T08:27:39.853Z,6.86
2017-12-19T08:28:48.833Z,6.82
2017-12-19T08:29:57.389Z,6.82
2017-12-19T08:31:06.730Z,6.79
2017-12-19T08:32:15.897Z,6.82
2017-12-19T08:33:24.743Z,6.88
2017-12-19T08:34:33.300Z,6.93
2017-12-19T08:35:42.681Z,6.79
2017-12-19T08:36:51.219Z,6.82
2017-12-19T08:37:59.751Z,6.86
2017-12-19T08:39:08.826Z,6.82
2017-12-19T08:40:17.414Z,6.91
2017-12-19T08:41:25.950Z,6.9
2017-12-19T08:42:35.020Z,6.83
2017-12-19T08:43:43.553Z,7
2017-12-19T08:44:52.405Z,7
2017-12-19T08:46:00.951Z,6.95
2017-12-19T08:47:09.749Z,7
2017-12-19T08:48:18.549Z,7.01
2017-12-19T08:49:27.559Z,7.01
2017-12-19T08:50:36.249Z,7.01
2017-12-19T08:51:44.835Z,6.97
2017-12-19T08:52:53.900Z,7.05
2017-12-19T08:54:02.711Z,7.12
2017-12-19T08:55:11.796Z,7.09
2017-12-19T08:56:20.595Z,7.09
2017-12-19T08:57:29.679Z,7.01
2017-12-19T08:58:38.212Z,7.04
2017-12-19T08:59:47.284Z,7.03
2017-12-19T09:00:56.146Z,7.15
2017-12-19T09:02:04.677Z,7.01
2017-12-19T09:03:13.797Z,7.13
2017-12-19T09:04:22.870Z,7.03
2017-12-19T09:05:32.204Z,7.12
2017-12-19T09:06:40.738Z,7.13
2017-12-19T09:07:49.568Z,7.11
2017-12-19T09:08:58.102Z,7.16
2017-12-19T09:10:07.173Z,7.16
2017-12-19T09:11:15.708Z,7.19
2017-12-19T09:12:24.240Z,7.15
2017-12-19T09:13:32.781Z,7.16
2017-12-19T09:14:41.632Z,7.27
2017-12-19T09:15:50.167Z,7.23
2017-12-19T09:16:58.969Z,7.16
2017-12-19T09:18:07.770Z,7.23
2017-12-19T09:19:16.305Z,7.19
2017-12-19T09:20:25.696Z,7.21
2017-12-19T09:21:34.724Z,7.23
2017-12-19T09:22:43.425Z,7.27
2017-12-19T09:23:53.064Z,7.23
2017-12-19T09:25:02.589Z,7.27
2017-12-19T09:26:11.715Z,7.26
2017-12-19T09:27:21.281Z,7.23
2017-12-19T09:28:30.642Z,7.27
2017-12-19T09:29:39.712Z,7.36
2017-12-19T09:30:48.520Z,7.3
2017-12-19T09:31:57.320Z,7.4
2017-12-19T09:33:06.121Z,7.39
2017-12-19T09:34:14.930Z,7.44
2017-12-19T09:35:24.155Z,7.44
2017-12-19T09:36:32.946Z,7.47
2017-12-19T09:37:42.382Z,7.49
2017-12-19T09:38:51.660Z,7.52
2017-12-19T09:40:00.461Z,7.51
2017-12-19T09:41:09.304Z,7.55
2017-12-19T09:42:17.839Z,7.56
2017-12-19T09:43:26.933Z,7.54
2017-12-19T09:44:35.750Z,7.52
2017-12-19T09:45:44.557Z,7.56
2017-12-19T09:46:53.361Z,7.64
2017-12-19T09:48:02.170Z,7.64
2017-12-19T09:49:12.032Z,7.63
2017-12-19T09:50:20.596Z,7.73
2017-12-19T09:51:29.662Z,7.71
2017-12-19T09:52:38.925Z,7.7
2017-12-19T09:53:47.812Z,7.59
2017-12-19T09:54:56.343Z,7.59
2017-12-19T09:56:04.920Z,7.71
2017-12-19T09:57:13.752Z,7.64
2017-12-19T09:58:22.285Z,7.63
2017-12-19T09:59:31.354Z,7.74
2017-12-19T10:00:39.941Z,7.71
2017-12-19T10:01:48.739Z,7.67
2017-12-19T10:02:57.541Z,7.74
2017-12-19T10:04:06.077Z,7.74
2017-12-19T10:05:14.877Z,7.73
2017-12-19T10:06:23.941Z,7.71
2017-12-19T10:07:32.786Z,7.7
2017-12-19T10:08:41.588Z,7.82
2017-12-19T10:09:50.124Z,7.73
2017-12-19T10:10:58.930Z,7.78
2017-12-19T10:12:08.049Z,7.77
2017-12-19T10:13:16.854Z,7.82
2017-12-19T10:14:25.656Z,7.83
2017-12-19T10:15:34.774Z,7.75
2017-12-19T10:16:43.558Z,7.78
2017-12-19T10:17:52.411Z,7.82
2017-12-19T10:19:00.945Z,7.8
2017-12-19T10:20:09.481Z,7.78
2017-12-19T10:21:18.553Z,7.8
2017-12-19T10:22:27.112Z,7.78
2017-12-19T10:23:36.185Z,7.86
2017-12-19T10:24:45.038Z,7.83
2017-12-19T10:25:53.574Z,7.86
2017-12-19T10:27:02.114Z,7.88
2017-12-19T10:28:10.645Z,7.91
2017-12-19T10:29:19.241Z,7.82
2017-12-19T10:30:28.040Z,7.83
2017-12-19T10:31:37.399Z,7.88
2017-12-19T10:32:46.465Z,7.99
2017-12-19T10:33:55.289Z,7.92
2017-12-19T10:35:04.410Z,7.96
2017-12-19T10:36:13.372Z,7.99
2017-12-19T10:37:22.472Z,7.93
2017-12-19T10:38:31.812Z,7.96
2017-12-19T10:39:40.348Z,7.99
2017-12-19T10:40:49.156Z,8.01
2017-12-19T10:41:58.006Z,8.03
2017-12-19T10:43:06.816Z,8.03
2017-12-19T10:44:15.626Z,7.96
2017-12-19T10:45:24.443Z,8.03
2017-12-19T10:46:33.359Z,8.06
2017-12-19T10:47:42.695Z,8.04
2017-12-19T10:48:51.494Z,8.09
2017-12-19T10:50:00.033Z,8.11
2017-12-19T10:51:09.109Z,8.16
2017-12-19T10:52:17.915Z,8.16
2017-12-19T10:53:26.756Z,8.21
2017-12-19T10:54:35.296Z,8.19
2017-12-19T10:55:44.097Z,8.17
2017-12-19T10:56:52.920Z,8.21
2017-12-19T10:58:01.504Z,8.19
2017-12-19T10:59:10.305Z,8.09
2017-12-19T11:00:19.376Z,8.17
2017-12-19T11:01:27.910Z,8.28
2017-12-19T11:02:36.715Z,8.32
2017-12-19T11:03:45.259Z,8.39
2017-12-19T11:04:53.792Z,8.34
2017-12-19T11:06:02.327Z,8.32
2017-12-19T11:07:11.129Z,8.44
2017-12-19T11:08:19.926Z,8.35
2017-12-19T11:09:28.994Z,8.36
2017-12-19T11:10:37.795Z,8.36
2017-12-19T11:11:46.626Z,8.46
2017-12-19T11:12:55.959Z,8.43
2017-12-19T11:14:05.061Z,8.43
2017-12-19T11:15:15.296Z,8.54
2017-12-19T11:16:25.220Z,8.49
2017-12-19T11:17:34.288Z,8.57
2017-12-19T11:18:42.833Z,8.6
2017-12-19T11:19:51.371Z,8.54
2017-12-19T11:20:59.906Z,8.6
2017-12-19T11:22:08.840Z,8.61
2017-12-19T11:23:18.174Z,8.67
2017-12-19T11:24:26.979Z,8.61
2017-12-19T11:25:35.517Z,8.64
2017-12-19T11:26:44.048Z,8.67
2017-12-19T11:27:52.849Z,8.71
2017-12-19T11:29:01.914Z,8.71
2017-12-19T11:30:10.446Z,8.77
2017-12-19T11:31:19.517Z,8.76
2017-12-19T11:32:28.371Z,8.71
2017-12-19T11:33:37.439Z,8.76
2017-12-19T11:34:45.974Z,8.8
2017-12-19T11:35:55.041Z,8.74
2017-12-19T11:37:04.146Z,8.69
2017-12-19T11:38:12.945Z,8.76
2017-12-19T11:39:21.753Z,8.79
2017-12-19T11:40:30.565Z,8.76
2017-12-19T11:41:39.365Z,8.77
2017-12-19T11:42:48.167Z,8.8
2017-12-19T11:43:56.728Z,8.9
2017-12-19T11:45:05.801Z,8.83
2017-12-19T11:46:14.336Z,8.87
2017-12-19T11:47:22.875Z,8.86
2017-12-19T11:48:31.672Z,8.94
2017-12-19T11:49:40.481Z,8.9
2017-12-19T11:50:49.548Z,8.87
2017-12-19T11:51:58.624Z,8.97
2017-12-19T11:53:07.430Z,9.05
2017-12-19T11:54:16.289Z,9.11
2017-12-19T11:55:25.107Z,9.09
2017-12-19T11:56:34.236Z,9.05
2017-12-19T11:57:43.312Z,9.11
2017-12-19T11:58:51.850Z,9.09
2017-12-19T12:00:00.385Z,9.05
2017-12-19T12:01:08.918Z,9.12
2017-12-19T12:02:17.465Z,9.12
2017-12-19T12:03:25.998Z,9.17
2017-12-19T12:04:35.075Z,9.11
2017-12-19T12:05:44.144Z,9.19
2017-12-19T12:06:53.264Z,9.17
2017-12-19T12:08:02.602Z,9.17
2017-12-19T12:09:11.403Z,9.16
2017-12-19T12:10:20.471Z,9.19
2017-12-19T12:11:29.538Z,9.17
2017-12-19T12:12:38.394Z,9.26
2017-12-19T12:13:46.929Z,9.23
2017-12-19T12:14:55.998Z,9.27
2017-12-19T12:16:04.806Z,9.29
2017-12-19T12:17:13.606Z,9.26
2017-12-19T12:18:22.420Z,9.34
2017-12-19T12:19:30.958Z,9.27
2017-12-19T12:20:40.029Z,9.24
2017-12-19T12:21:48.827Z,9.34
2017-12-19T12:22:57.629Z,9.27
2017-12-19T12:24:06.583Z,9.37
2017-12-19T12:25:15.054Z,9.34
2017-12-19T12:26:24.120Z,9.37
2017-12-19T12:27:32.677Z,9.37
2017-12-19T12:28:41.231Z,9.3
2017-12-19T12:29:49.766Z,9.3
2017-12-19T12:30:59.104Z,9.37
2017-12-19T12:32:07.923Z,9.35
2017-12-19T12:33:16.991Z,9.3
2017-12-19T12:34:25.797Z,9.34
2017-12-19T12:35:34.383Z,9.26
2017-12-19T12:36:43.315Z,9.37
2017-12-19T12:37:52.165Z,9.3
2017-12-19T12:39:00.702Z,9.29
2017-12-19T12:40:09.248Z,9.32
2017-12-19T12:41:18.097Z,9.26
2017-12-19T12:42:27.288Z,9.32
2017-12-19T12:43:35.825Z,9.3
2017-12-19T12:44:44.630Z,9.27
2017-12-19T12:45:53.434Z,9.3
2017-12-19T12:47:02.281Z,9.27
2017-12-19T12:48:11.089Z,9.26
2017-12-19T12:49:19.637Z,9.29
2017-12-19T12:50:28.449Z,9.32
2017-12-19T12:51:36.987Z,9.21
2017-12-19T12:52:45.827Z,9.27
2017-12-19T12:53:54.627Z,9.23
2017-12-19T12:55:03.428Z,9.27
2017-12-19T12:56:11.964Z,9.32
2017-12-19T12:57:20.548Z,9.29
2017-12-19T12:58:29.349Z,9.32
2017-12-19T12:59:37.886Z,9.3
2017-12-19T13:00:46.971Z,9.41
2017-12-19T13:01:55.485Z,9.41
2017-12-19T13:03:04.021Z,9.35
2017-12-19T13:04:12.840Z,9.35
2017-12-19T13:05:21.364Z,9.3
2017-12-19T13:06:30.173Z,9.39
2017-12-19T13:07:38.712Z,9.37
2017-12-19T13:08:47.247Z,9.35
2017-12-19T13:09:55.830Z,9.26
2017-12-19T13:11:04.367Z,9.23
2017-12-19T13:12:12.900Z,9.32
2017-12-19T13:13:21.772Z,9.27
2017-12-19T13:14:30.307Z,9.29
2017-12-19T13:15:38.842Z,9.32
2017-12-19T13:16:47.377Z,9.26
2017-12-19T13:17:56.184Z,9.3
2017-12-19T13:19:04.987Z,9.27
2017-12-19T13:20:14.062Z,9.29
2017-12-19T13:21:22.647Z,9.3
2017-12-19T13:22:31.183Z,9.32
2017-12-19T13:23:39.988Z,9.26
2017-12-19T13:24:48.565Z,9.26
2017-12-19T13:25:57.099Z,9.26
2017-12-19T13:27:05.638Z,9.3
2017-12-19T13:28:14.438Z,9.29
2017-12-19T13:29:23.241Z,9.29
2017-12-19T13:30:32.043Z,9.27
2017-12-19T13:31:40.582Z,9.29
2017-12-19T13:32:49.381Z,9.23
2017-12-19T13:33:58.185Z,9.19
2017-12-19T13:35:07.259Z,9.17
2017-12-19T13:36:16.063Z,9.19
2017-12-19T13:37:24.925Z,9.2
2017-12-19T13:38:33.725Z,9.14
2017-12-19T13:39:42.269Z,9.14
2017-12-19T13:40:51.073Z,9.17
2017-12-19T13:42:00.140Z,9.19
2017-12-19T13:43:08.945Z,9.12
2017-12-19T13:44:18.334Z,9.11
2017-12-19T13:45:27.403Z,9.14
2017-12-19T13:46:36.543Z,9.12
2017-12-19T13:47:45.598Z,9.16
2017-12-19T13:48:54.402Z,9.12
2017-12-19T13:50:02.969Z,9.11
2017-12-19T13:51:11.570Z,9.17
2017-12-19T13:52:20.651Z,9.08
2017-12-19T13:53:29.188Z,9.12
2017-12-19T13:54:37.726Z,9.19
2017-12-19T13:55:46.334Z,9.17
2017-12-19T13:56:55.359Z,9.12
2017-12-19T13:58:04.433Z,9.11
2017-12-19T13:59:13.164Z,9.12
2017-12-19T14:00:21.701Z,9.11
2017-12-19T14:01:30.769Z,9.09
2017-12-19T14:02:39.302Z,9.12
2017-12-19T14:03:48.105Z,9.16
2017-12-19T14:04:56.916Z,9.17
2017-12-19T14:06:05.984Z,9.16
2017-12-19T14:07:14.877Z,9.16
2017-12-19T14:08:23.947Z,9.11
2017-12-19T14:09:32.901Z,9.11
2017-12-19T14:10:41.587Z,9.19
2017-12-19T14:11:50.710Z,9.19
2017-12-19T14:12:59.782Z,9.17
2017-12-19T14:14:08.584Z,9.11
2017-12-19T14:15:17.139Z,9.17
2017-12-19T14:16:25.679Z,9.09
2017-12-19T14:17:34.754Z,9.09
2017-12-19T14:18:44.169Z,9.09
2017-12-19T14:19:53.256Z,9.17
2017-12-19T14:21:02.058Z,9.16
2017-12-19T14:22:10.589Z,9.12
2017-12-19T14:23:19.497Z,9.09
2017-12-19T14:24:28.361Z,9.09
2017-12-19T14:25:37.167Z,9.05
2017-12-19T14:26:45.967Z,8.98
2017-12-19T14:27:54.499Z,9.16
2017-12-19T14:29:03.334Z,9.12
2017-12-19T14:30:12.132Z,9.03
2017-12-19T14:31:20.668Z,9.11
2017-12-19T14:32:29.472Z,9.03
2017-12-19T14:33:38.832Z,9.12
2017-12-19T14:34:47.636Z,9.08
2017-12-19T14:35:56.493Z,9.05
2017-12-19T14:37:05.294Z,9.04
2017-12-19T14:38:13.838Z,9.08
2017-12-19T14:39:22.637Z,9.03
2017-12-19T14:40:31.701Z,9.03
2017-12-19T14:41:40.235Z,8.92
2017-12-19T14:42:48.793Z,9.04
2017-12-19T14:43:57.597Z,9.11
2017-12-19T14:45:06.401Z,8.87
2017-12-19T14:46:14.935Z,8.9
2017-12-19T14:47:23.475Z,8.94
2017-12-19T14:48:32.291Z,8.89
2017-12-19T14:49:41.110Z,8.9
2017-12-19T14:50:49.652Z,8.94
2017-12-19T14:51:58.455Z,8.87
2017-12-19T14:53:07.306Z,8.95
2017-12-19T14:54:16.374Z,8.95
2017-12-19T14:55:25.175Z,8.94
2017-12-19T14:56:33.979Z,8.83
2017-12-19T14:57:43.048Z,8.85
2017-12-19T14:58:51.898Z,8.85
2017-12-19T15:00:00.441Z,8.9
2017-12-19T15:01:09.037Z,8.82
2017-12-19T15:02:17.572Z,8.83
2017-12-19T15:03:26.407Z,8.87
2017-12-19T15:04:34.998Z,8.87
2017-12-19T15:05:43.804Z,8.83
2017-12-19T15:06:52.608Z,8.77
2017-12-19T15:08:01.188Z,8.82
2017-12-19T15:09:09.720Z,8.82
2017-12-19T15:10:18.253Z,8.71
2017-12-19T15:11:27.051Z,8.76
2017-12-19T15:12:35.585Z,8.77
2017-12-19T15:13:44.652Z,8.64
2017-12-19T15:14:53.722Z,8.65
2017-12-19T15:16:02.581Z,8.64
2017-12-19T15:17:11.175Z,8.67
2017-12-19T15:18:19.927Z,8.72
2017-12-19T15:19:28.729Z,8.71
2017-12-19T15:20:37.586Z,8.6
2017-12-19T15:21:46.065Z,8.65
2017-12-19T15:22:55.133Z,8.53
2017-12-19T15:24:03.662Z,8.58
2017-12-19T15:25:12.493Z,8.54
2017-12-19T15:26:21.299Z,8.57
2017-12-19T15:27:30.151Z,8.53
2017-12-19T15:28:38.953Z,8.53
2017-12-19T15:29:47.755Z,8.58
2017-12-19T15:30:56.342Z,8.52
2017-12-19T15:32:04.878Z,8.52
2017-12-19T15:33:13.731Z,8.52
2017-12-19T15:34:22.532Z,8.5
2017-12-19T15:35:31.335Z,8.44
2017-12-19T15:36:40.408Z,8.5
2017-12-19T15:37:49.502Z,8.53
2017-12-19T15:38:58.570Z,8.6
2017-12-19T15:40:07.105Z,8.53
2017-12-19T15:41:16.189Z,8.52
2017-12-19T15:42:24.717Z,8.52
2017-12-19T15:43:33.519Z,8.57
2017-12-19T15:44:43.212Z,8.44
2017-12-19T15:45:51.949Z,8.58
2017-12-19T15:47:00.485Z,8.53
2017-12-19T15:48:09.018Z,8.44
2017-12-19T15:49:17.819Z,8.49
2017-12-19T15:50:26.414Z,8.44
2017-12-19T15:51:35.228Z,8.54
2017-12-19T15:52:44.050Z,8.46
2017-12-19T15:53:52.588Z,8.43
2017-12-19T15:55:01.445Z,8.44
2017-12-19T15:56:10.253Z,8.43
2017-12-19T15:57:19.052Z,8.46
2017-12-19T15:58:27.853Z,8.43
2017-12-19T15:59:36.387Z,8.36
2017-12-19T16:00:45.458Z,8.43
2017-12-19T16:01:54.040Z,8.35
2017-12-19T16:03:02.843Z,8.35
2017-12-19T16:04:11.910Z,8.44
2017-12-19T16:05:20.977Z,8.36
2017-12-19T16:06:30.314Z,8.36
2017-12-19T16:07:39.651Z,8.36
2017-12-19T16:08:48.188Z,8.31
2017-12-19T16:09:56.991Z,8.36
2017-12-19T16:11:05.531Z,8.31
2017-12-19T16:12:14.069Z,8.36
2017-12-19T16:13:23.137Z,8.35
2017-12-19T16:14:32.205Z,8.4
2017-12-19T16:15:41.006Z,8.34
2017-12-19T16:16:50.082Z,8.34
2017-12-19T16:17:58.614Z,8.34
2017-12-19T16:19:07.683Z,8.34
2017-12-19T16:20:16.754Z,8.43
2017-12-19T16:21:25.560Z,8.34
2017-12-19T16:22:34.627Z,8.39
2017-12-19T16:23:43.427Z,8.34
2017-12-19T16:24:52.012Z,8.36
2017-12-19T16:26:00.813Z,8.34
2017-12-19T16:27:09.629Z,8.29
2017-12-19T16:28:18.431Z,8.28
2017-12-19T16:29:26.969Z,8.29
2017-12-19T16:30:35.773Z,8.29
2017-12-19T16:31:44.577Z,8.29
2017-12-19T16:32:53.383Z,8.22
2017-12-19T16:34:02.183Z,8.24
2017-12-19T16:35:10.719Z,8.24
2017-12-19T16:36:20.106Z,8.21
2017-12-19T16:37:29.176Z,8.21
2017-12-19T16:38:38.245Z,8.22
2017-12-19T16:39:47.044Z,8.22
2017-12-19T16:40:55.579Z,8.19
2017-12-19T16:42:04.114Z,8.19
2017-12-19T16:43:12.920Z,8.19
2017-12-19T16:44:21.454Z,8.14
2017-12-19T16:45:29.988Z,8.16
2017-12-19T16:46:38.790Z,8.11
2017-12-19T16:47:47.375Z,8.11
2017-12-19T16:48:56.452Z,8.14
2017-12-19T16:50:05.255Z,8.06
2017-12-19T16:51:14.346Z,8.04
2017-12-19T16:52:23.160Z,8.06
2017-12-19T16:53:32.234Z,7.96
2017-12-19T16:54:40.770Z,8.06
2017-12-19T16:55:49.306Z,8.04
2017-12-19T16:56:57.844Z,7.95
2017-12-19T16:58:06.381Z,7.93
2017-12-19T16:59:15.499Z,7.88
2017-12-19T17:00:24.565Z,7.96
2017-12-19T17:01:33.100Z,7.96
2017-12-19T17:02:41.898Z,7.98
2017-12-19T17:03:50.432Z,7.85
2017-12-19T17:04:59.287Z,7.89
2017-12-19T17:06:07.824Z,7.78
2017-12-19T17:07:16.354Z,7.83
2017-12-19T17:08:24.894Z,7.91
2017-12-19T17:09:33.698Z,7.88
2017-12-19T17:10:42.497Z,7.88
2017-12-19T17:11:51.032Z,7.82
2017-12-19T17:13:00.368Z,7.8
2017-12-19T17:14:08.905Z,7.8
2017-12-19T17:15:17.980Z,7.85
2017-12-19T17:16:26.517Z,7.83
2017-12-19T17:17:35.386Z,7.77
2017-12-19T17:18:43.973Z,7.75
2017-12-19T17:19:52.772Z,7.83
2017-12-19T17:21:01.573Z,7.83
2017-12-19T17:22:10.974Z,7.78
2017-12-19T17:23:19.772Z,7.86
2017-12-19T17:24:28.573Z,7.82
2017-12-19T17:25:37.107Z,7.7
2017-12-19T17:26:46.238Z,7.74
2017-12-19T17:27:55.044Z,7.73
2017-12-19T17:29:03.577Z,7.67
2017-12-19T17:30:12.385Z,7.71
2017-12-19T17:31:21.187Z,7.85
2017-12-19T17:32:29.720Z,7.77
2017-12-19T17:33:38.252Z,7.75
2017-12-19T17:34:47.316Z,7.71
2017-12-19T17:35:56.122Z,7.68
2017-12-19T17:37:04.917Z,7.75
2017-12-19T17:38:13.454Z,7.7
2017-12-19T17:39:22.304Z,7.68
2017-12-19T17:40:30.839Z,7.75
2017-12-19T17:41:39.372Z,7.74
2017-12-19T17:42:47.921Z,7.74
2017-12-19T17:43:56.722Z,7.64
2017-12-19T17:45:05.790Z,7.63
2017-12-19T17:46:14.596Z,7.68
2017-12-19T17:47:23.397Z,7.61
2017-12-19T17:48:32.572Z,7.7
2017-12-19T17:49:41.372Z,7.59
2017-12-19T17:50:49.912Z,7.64
2017-12-19T17:51:58.710Z,7.71
2017-12-19T17:53:07.775Z,7.68
2017-12-19T17:54:16.309Z,7.58
2017-12-19T17:55:25.376Z,7.64
2017-12-19T17:56:34.227Z,7.67
2017-12-19T17:57:43.024Z,7.63
2017-12-19T17:58:52.365Z,7.68
2017-12-19T18:00:01.165Z,7.56
2017-12-19T18:01:10.238Z,7.51
2017-12-19T18:02:19.089Z,7.55
2017-12-19T18:03:27.625Z,7.55
2017-12-19T18:04:36.425Z,7.56
2017-12-19T18:05:45.226Z,7.55
2017-12-19T18:06:53.762Z,7.51
2017-12-19T18:08:02.295Z,7.55
2017-12-19T18:09:10.828Z,7.56
2017-12-19T18:10:19.627Z,7.61
2017-12-19T18:11:28.162Z,7.45
2017-12-19T18:12:36.695Z,7.52
2017-12-19T18:13:45.224Z,7.55
2017-12-19T18:14:54.026Z,7.55
2017-12-19T18:16:02.827Z,7.49
2017-12-19T18:17:11.625Z,7.52
2017-12-19T18:18:20.161Z,7.52
2017-12-19T18:19:29.275Z,7.52
2017-12-19T18:20:37.808Z,7.56
2017-12-19T18:21:46.873Z,7.47
2017-12-19T18:22:55.674Z,7.51
2017-12-19T18:24:04.747Z,7.58
2017-12-19T18:25:13.548Z,7.47
2017-12-19T18:26:22.349Z,7.51
2017-12-19T18:27:30.881Z,7.51
2017-12-19T18:28:39.949Z,7.49
2017-12-19T18:29:48.484Z,7.47
2017-12-19T18:30:57.017Z,7.48
2017-12-19T18:32:05.550Z,7.47
2017-12-19T18:33:14.184Z,7.47
2017-12-19T18:34:22.985Z,7.51
2017-12-19T18:35:31.785Z,7.48
2017-12-19T18:36:40.851Z,7.49
2017-12-19T18:37:49.652Z,7.56
2017-12-19T18:38:58.184Z,7.52
2017-12-19T18:40:07.250Z,7.48
2017-12-19T18:41:16.319Z,7.55
2017-12-19T18:42:25.120Z,7.52
2017-12-19T18:43:34.185Z,7.51
2017-12-19T18:44:43.252Z,7.52
2017-12-19T18:45:52.054Z,7.56
2017-12-19T18:47:01.175Z,7.48
2017-12-19T18:48:09.708Z,7.55
2017-12-19T18:49:18.513Z,7.45
2017-12-19T18:50:27.314Z,7.52
2017-12-19T18:51:35.850Z,7.44
2017-12-19T18:52:44.918Z,7.61
2017-12-19T18:53:53.454Z,7.58
2017-12-19T18:55:02.254Z,7.55
2017-12-19T18:56:10.789Z,7.55
2017-12-19T18:57:20.122Z,7.54
2017-12-19T18:58:28.710Z,7.54
2017-12-19T18:59:38.047Z,7.51
2017-12-19T19:00:46.584Z,7.59
2017-12-19T19:01:55.121Z,7.47
2017-12-19T19:03:03.923Z,7.58
2017-12-19T19:04:13.044Z,7.51
2017-12-19T19:05:21.848Z,7.52
2017-12-19T19:06:30.651Z,7.56
2017-12-19T19:07:39.182Z,7.45
2017-12-19T19:08:47.985Z,7.45
2017-12-19T19:09:57.323Z,7.52
2017-12-19T19:11:06.135Z,7.51
2017-12-19T19:12:15.207Z,7.58
2017-12-19T19:13:23.740Z,7.55
2017-12-19T19:14:32.274Z,7.56
2017-12-19T19:15:41.076Z,7.45
2017-12-19T19:16:50.148Z,7.51
2017-12-19T19:17:58.954Z,7.52
2017-12-19T19:19:07.754Z,7.52
2017-12-19T19:20:16.818Z,7.41
2017-12-19T19:21:25.351Z,7.51
2017-12-19T19:22:33.884Z,7.41
2017-12-19T19:23:42.687Z,7.37
2017-12-19T19:24:52.024Z,7.47
2017-12-19T19:26:00.563Z,7.44
2017-12-19T19:27:09.096Z,7.4
2017-12-19T19:28:18.178Z,7.41
2017-12-19T19:29:26.713Z,7.45
2017-12-19T19:30:35.779Z,7.39
2017-12-19T19:31:44.317Z,7.37
2017-12-19T19:32:53.206Z,7.45
2017-12-19T19:34:01.740Z,7.44
2017-12-19T19:35:10.273Z,7.41
2017-12-19T19:36:18.813Z,7.4
2017-12-19T19:37:27.344Z,7.44
2017-12-19T19:38:36.411Z,7.4
2017-12-19T19:39:44.947Z,7.44
2017-12-19T19:40:53.480Z,7.4
2017-12-19T19:42:02.830Z,7.4
2017-12-19T19:43:11.363Z,7.37
2017-12-19T19:44:20.216Z,7.33
2017-12-19T19:45:29.016Z,7.44
2017-12-19T19:46:37.819Z,7.4
2017-12-19T19:47:46.357Z,7.36
2017-12-19T19:48:55.166Z,7.34
2017-12-19T19:50:04.290Z,7.33
2017-12-19T19:51:13.090Z,7.19
2017-12-19T19:52:21.621Z,7.23
2017-12-19T19:53:30.421Z,7.22
2017-12-19T19:54:39.758Z,7.33
2017-12-19T19:55:48.293Z,7.3
2017-12-19T19:56:56.826Z,7.22
2017-12-19T19:58:05.643Z,7.16
2017-12-19T19:59:14.712Z,7.29
2017-12-19T20:00:24.052Z,7.19
2017-12-19T20:01:32.901Z,7.22
2017-12-19T20:02:41.435Z,7.27
2017-12-19T20:03:50.240Z,7.15
2017-12-19T20:04:58.778Z,7.15
2017-12-19T20:06:07.580Z,7.21
2017-12-19T20:07:16.111Z,7.15
2017-12-19T20:08:24.642Z,7.23
2017-12-19T20:09:33.445Z,7.21
2017-12-19T20:10:41.985Z,7.19
2017-12-19T20:11:50.784Z,7.13
2017-12-19T20:12:59.317Z,7.15
2017-12-19T20:14:07.881Z,7.16
2017-12-19T20:15:16.681Z,7.11
2017-12-19T20:16:25.747Z,7.03
2017-12-19T20:17:34.329Z,7.09
2017-12-19T20:18:42.873Z,7.11
2017-12-19T20:19:51.675Z,6.97
2017-12-19T20:21:00.209Z,7
2017-12-19T20:22:08.745Z,7.03
2017-12-19T20:23:17.281Z,7.08
2017-12-19T20:24:26.080Z,6.98
2017-12-19T20:25:34.614Z,7.15
2017-12-19T20:26:43.418Z,7.13
2017-12-19T20:27:52.241Z,7.04
2017-12-19T20:29:01.092Z,6.98
2017-12-19T20:30:10.163Z,7
2017-12-19T20:31:18.698Z,6.95
2017-12-19T20:32:27.503Z,6.98
2017-12-19T20:33:36.039Z,7.05
2017-12-19T20:34:44.569Z,7.03
2017-12-19T20:35:53.104Z,7.04
2017-12-19T20:37:01.642Z,6.93
2017-12-19T20:38:10.439Z,6.97
2017-12-19T20:39:19.545Z,7
2017-12-19T20:40:28.398Z,7.03
2017-12-19T20:41:37.209Z,6.95
2017-12-19T20:42:46.009Z,6.97
2017-12-19T20:43:54.542Z,6.97
2017-12-19T20:45:03.084Z,6.94
2017-12-19T20:46:11.665Z,6.95
2017-12-19T20:47:20.734Z,6.93
2017-12-19T20:48:29.267Z,6.94
2017-12-19T20:49:38.068Z,6.98
2017-12-19T20:50:47.135Z,7.03
2017-12-19T20:51:55.670Z,7.01
2017-12-19T20:53:04.473Z,6.94
2017-12-19T20:54:13.818Z,7
2017-12-19T20:55:22.350Z,6.85
2017-12-19T20:56:30.883Z,6.94
2017-12-19T20:57:39.736Z,6.95
2017-12-19T20:58:48.591Z,6.95
2017-12-19T20:59:57.128Z,6.98
2017-12-19T21:01:05.928Z,6.9
2017-12-19T21:02:15.263Z,6.95
2017-12-19T21:03:24.063Z,6.98
2017-12-19T21:04:32.597Z,6.97
2017-12-19T21:05:41.444Z,6.94
2017-12-19T21:06:50.243Z,6.97
2017-12-19T21:07:59.051Z,6.97
2017-12-19T21:09:08.175Z,6.93
2017-12-19T21:10:16.973Z,6.97
2017-12-19T21:11:25.506Z,6.97
2017-12-19T21:12:34.039Z,6.94
2017-12-19T21:13:43.114Z,7.01
2017-12-19T21:14:51.645Z,6.93
2017-12-19T21:16:00.709Z,6.98
2017-12-19T21:17:09.591Z,6.95
2017-12-19T21:18:18.397Z,6.91
2017-12-19T21:19:26.933Z,6.88
2017-12-19T21:20:35.781Z,6.97
2017-12-19T21:21:45.113Z,6.86
2017-12-19T21:22:53.644Z,6.88
2017-12-19T21:24:02.447Z,6.93
2017-12-19T21:25:11.260Z,6.85
2017-12-19T21:26:20.118Z,6.95
2017-12-19T21:27:28.911Z,6.94
2017-12-19T21:28:37.974Z,6.95
2017-12-19T21:29:47.042Z,6.94
2017-12-19T21:30:55.883Z,6.85
2017-12-19T21:32:05.292Z,6.97
2017-12-19T21:33:14.092Z,6.85
2017-12-19T21:34:22.625Z,6.98
2017-12-19T21:35:31.160Z,7
2017-12-19T21:36:40.230Z,6.93
2017-12-19T21:37:48.815Z,6.95
2017-12-19T21:38:57.346Z,6.94
2017-12-19T21:40:06.147Z,6.86
2017-12-19T21:41:14.679Z,7.01
2017-12-19T21:42:23.211Z,6.88
2017-12-19T21:43:32.280Z,7
2017-12-19T21:44:40.813Z,6.95
2017-12-19T21:45:49.613Z,6.97
2017-12-19T21:46:58.147Z,6.98
2017-12-19T21:48:06.678Z,6.95
2017-12-19T21:49:15.746Z,7
2017-12-19T21:50:24.814Z,6.97
2017-12-19T21:51:33.880Z,6.97
2017-12-19T21:52:42.681Z,7
2017-12-19T21:53:51.215Z,6.93
2017-12-19T21:55:00.065Z,7.04
2017-12-19T21:56:09.132Z,6.95
2017-12-19T21:57:17.673Z,7.04
2017-12-19T21:58:26.477Z,7.01
2017-12-19T21:59:35.008Z,7.04
2017-12-19T22:00:44.081Z,7
2017-12-19T22:01:52.614Z,7.01
2017-12-19T22:03:01.416Z,7.03
2017-12-19T22:04:10.755Z,6.98
2017-12-19T22:05:19.286Z,7.05
2017-12-19T22:06:27.870Z,6.98
2017-12-19T22:07:36.939Z,6.98
2017-12-19T22:08:45.475Z,7.08
2017-12-19T22:09:54.007Z,7.13
2017-12-19T22:11:03.072Z,7.03
2017-12-19T22:12:11.605Z,7.04
2017-12-19T22:13:20.401Z,7.03
2017-12-19T22:14:29.205Z,7.01
2017-12-19T22:15:37.737Z,7.12
2017-12-19T22:16:46.270Z,7.04
2017-12-19T22:17:55.337Z,7.03
2017-12-19T22:19:04.405Z,7.16
2017-12-19T22:20:13.791Z,7.08
2017-12-19T22:21:22.591Z,7
2017-12-19T22:22:31.392Z,6.98